• Join FlightAware (Why Join?)
  • Login
  • US Flag 
04:42PM EDT


 

Airport Tracker/Info


-or-


 

Live Flight TrackerFlight Track Log ✈ FLG3735 ✈ 25-Jun-2013 ✈ KDTW - KALB

Flight Track Log - Related Links

Times and Time Zones

All times are in EDT time to prevent confusion due to time zone crossing. See the FLG3735 flight status page for this flight to view local times or setup timezone preferences in your user account.

Time Position Orientation Groundspeed Altitude Reporting Facility
EDT Latitude Longitude Course Direction KTS MPH feet Rate Location/Type
10:27PM 42.2017 -83.3583 82° East 159 183 1,400  Level Cleveland Center
10:28PM 42.1578 -83.3592 181° South 212 244 3,200 2,040 Climbing Cleveland Center
10:30PM 42.2868 -82.8994 75° East  Level FlightAware Approximate
10:30PM 42.0406 -83.2953 158° South 267 307 7,300  Level Cleveland Center
10:31PM 42.3167 -82.7493 82° East  Level FlightAware Approximate
10:31PM 42.0697 -83.2014 67° East 214 246 9,800  Level Cleveland Center
10:32PM 42.3321 -82.5952 82° East  Level FlightAware Approximate
10:32PM 42.1219 -83.1056 54° Northeast 246 283 11,500  Level Cleveland Center
10:33PM 42.1783 -83.0014 54° Northeast 287 330 13,000 1,500 Climbing Cleveland Center
10:34PM 42.2453 -82.8944 50° Northeast 343 395 14,500 1,500 Climbing Cleveland Center
10:35PM 42.3181 -82.7875 47° Northeast 358 412 16,000 1,440 Climbing Cleveland Center
10:36PM 42.3931 -82.6778 47° Northeast 378 435 17,400 1,380 Climbing Cleveland Center
10:37PM 42.4828 -82.5567 45° Northeast 398 458 18,800 1,200 Climbing Cleveland Center
10:38PM 42.5311 -82.4203 64° Northeast 398 458 19,900 900 Climbing Cleveland Center
10:39PM 42.5417 -82.2600 85° East 394 453 20,700 840 Climbing Cleveland Center
10:40PM 42.5503 -82.0967 86° East 414 476 21,600 660 Climbing Cleveland Center
10:41PM 42.5583 -81.9531 86° East 419 482 22,100 600 Climbing Cleveland Center
10:42PM 42.5708 -81.7731 85° East 436 502 22,900 660 Climbing Cleveland Center
10:43PM 42.5808 -81.6011 85° East 445 512 23,500 540 Climbing Cleveland Center
10:44PM 42.5906 -81.4319 85° East 445 512 24,000 480 Climbing Cleveland Center
10:45PM 42.5978 -81.2600 87° East 452 520 24,500 540 Climbing Cleveland Center
10:46PM 42.6069 -81.0853 86° East 458 527 25,100 540 Climbing Cleveland Center
10:47PM 42.6161 -80.9106 86° East 458 527 25,600 480 Climbing Cleveland Center
10:48PM 42.6269 -80.7383 85° East 458 527 26,100 480 Climbing Cleveland Center
10:49PM 42.6331 -80.5661 87° East 459 528 26,600 420 Climbing Cleveland Center
10:51PM 42.6472 -80.2361 87° East 459 528 27,500 420 Climbing Cleveland Center
10:52PM 42.6569 -80.0667 85° East 459 528 28,000 540 Climbing Cleveland Center
10:53PM 42.6686 -79.8772 85° East 459 528 28,600 540 Climbing Cleveland Center
10:54PM 42.6758 -79.7050 87° East 459 528 29,100 480 Climbing Cleveland Center
10:55PM 42.6806 -79.5356 88° East 459 528 29,600 480 Climbing Cleveland Center
10:56PM 42.6831 -79.3631 89° East 454 522 30,100 480 Climbing Cleveland Center
10:57PM 42.6914 -79.1906 86° East 454 522 30,600 420 Climbing Cleveland Center
10:58PM 42.6978 -79.0239 87° East 454 522 31,000 180 Climbing Cleveland Center
10:59PM 42.7036 -78.8542 87° East 454 522 31,000  Level Cleveland Center
11:00PM 42.7072 -78.6761 88° East 459 528 31,000  Level Cleveland Center
11:01PM 42.7122 -78.4978 88° East 464 534 31,000  Level Cleveland Center
11:02PM 42.7172 -78.3197 88° East 464 534 31,000  Level Cleveland Center
11:03PM 42.7219 -78.1414 88° East 469 540 31,000  Level Cleveland Center
11:04PM 42.7264 -77.9575 88° East 474 545 31,000  Level Cleveland Center
11:05PM 42.7325 -77.7792 87° East 479 551 31,000  Level Cleveland Center
11:06PM 42.7342 -77.5897 89° East 484 557 31,000 -360 Level Cleveland Center
11:07PM 42.7375 -77.4028 89° East 484 557 30,300 -840 Descending Cleveland Center
11:09PM 42.7431 -77.0917 89° East 510 587 28,700 -1,020 Descending Boston Center
11:10PM 42.7478 -76.8683 88° East 504 580 27,400 -900 Descending Boston Center
11:11PM 42.7483 -76.6847 90° East 492 566 27,000 -240 Descending Boston Center
11:12PM 42.7511 -76.4981 89° East 492 566 27,000 -360 Level Boston Center
11:13PM 42.7533 -76.3144 89° East 492 566 26,300 -1,200 Descending Boston Center
11:14PM 42.7539 -76.1108 90° East 492 566 24,600 -1,560 Descending Boston Center
11:15PM 42.7556 -75.9214 89° East 492 566 23,200 -1,500 Descending Boston Center
11:16PM 42.7567 -75.7431 89° East 492 566 21,600 -1,500 Descending Boston Center
11:17PM 42.7575 -75.5706 90° East 487 560 20,200 -1,320 Descending Boston Center
11:18PM 42.7581 -75.3981 90° East 479 551 19,000 -600 Descending Boston Center
11:19PM 42.7561 -75.2256 91° East 468 539 19,000 -60 Level Boston Center
11:20PM 42.7561 -75.0472 90° East 462 532 18,900 -1,440 Descending Boston Center
11:21PM 42.7572 -74.9089 89° East 470 541 16,600 -3,180 Descending Boston Center
11:22PM 42.7547 -74.7278 91° East 440 506 14,100 -2,340 Descending Boston Center
11:23PM 42.7556 -74.5722 90° East 410 472 12,000 -1,800 Descending Boston Center
11:24PM 42.7894 -74.4347 71° East 365 420 10,500 -1,380 Descending Boston Center
11:25PM 42.8122 -74.3194 75° East 296 341 9,300 -1,440 Descending Boston Center
11:26PM 42.8367 -74.2153 72° East 284 327 7,600 -1,800 Descending Boston Center
11:27PM 42.8614 -74.1083 72° East 294 338 5,700 -1,740 Descending Boston Center
11:28PM 42.8858 -74.0014 73° East 291 335 4,100 -1,200 Descending Boston Center
11:29PM 42.9058 -73.9056 74° East 246 283 3,300 -960 Descending Boston Center
11:30PM 42.8878 -73.8372 110° East 206 237 2,200 -900 Descending Boston Center
11:31PM 42.8381 -73.8133 161° South 163 188 1,600 -600 Descending Boston Center
11:32PM 42.7964 -73.8097 176° South 143 165 1,100 -540 Descending Boston Center